Time;durP1;ratioP1;P1;durP2;ratioP2;P2;SDS_P1;SDS_P2;PMS_P1;PMS_P2;Temp;Humidity;BMP_temperature;BMP_pressure;BME280_temperature;BME280_humidity;BME280_pressure;Samples;Min_cycle;Max_cycle;Signal;HPM_P1;HPM_P2
2023/07/13 00:00:11;;;;;;;;;;;22.10;65.00;;;;;;5109022;28;19908;-75
2023/07/13 00:02:36;;;;;;;;;;;22.10;64.90;;;;;;5091486;28;19919;-75
2023/07/13 00:05:02;;;;;;;;;;;22.00;64.90;;;;;;5110222;28;20118;-75
2023/07/13 00:07:27;;;;;;;;;;;22.10;65.10;;;;;;5108513;28;20280;-75
2023/07/13 00:09:53;;;;;;;;;;;22.00;65.10;;;;;;5110260;28;19912;-75
2023/07/13 00:12:37;;;;;;;;;;;22.00;65.10;;;;;;5102703;27;19915;-75
2023/07/13 00:15:09;;;;;;;;;;;22.00;65.10;;;;;;5108118;28;19923;-75
2023/07/13 00:17:35;;;;;;;;;;;21.90;65.20;;;;;;5108607;28;19912;-75
2023/07/13 00:20:00;;;;;;;;;;;21.90;65.20;;;;;;5117623;27;19915;-75
2023/07/13 00:22:26;;;;;;;;;;;21.90;65.10;;;;;;5113171;27;19916;-75
2023/07/13 00:24:56;;;;;;;;;;;21.80;65.20;;;;;;5098565;28;19916;-75
2023/07/13 00:27:21;;;;;;;;;;;21.80;65.30;;;;;;5089020;28;20006;-75
2023/07/13 00:29:47;;;;;;;;;;;21.80;65.30;;;;;;5103948;27;20018;-74
2023/07/13 00:32:12;;;;;;;;;;;21.70;65.20;;;;;;5109613;27;19923;-75
2023/07/13 00:34:38;;;;;;;;;;;21.70;65.30;;;;;;5108410;28;19924;-75
2023/07/13 00:37:06;;;;;;;;;;;21.70;65.30;;;;;;5109385;28;20061;-75
2023/07/13 00:39:32;;;;;;;;;;;21.70;65.40;;;;;;5120866;27;19911;-75
2023/07/13 00:41:58;;;;;;;;;;;21.60;65.30;;;;;;5130345;27;19918;-75
2023/07/13 00:44:23;;;;;;;;;;;21.60;65.50;;;;;;5130105;27;19919;-75
2023/07/13 00:46:49;;;;;;;;;;;21.60;65.30;;;;;;5128118;27;19915;-74
2023/07/13 00:49:16;;;;;;;;;;;21.50;65.40;;;;;;5129903;27;19911;-74
2023/07/13 00:51:44;;;;;;;;;;;21.50;65.50;;;;;;5118857;27;19915;-75
2023/07/13 00:54:12;;;;;;;;;;;21.40;65.50;;;;;;5113927;27;19965;-75
2023/07/13 00:56:39;;;;;;;;;;;21.50;65.50;;;;;;5109157;28;19956;-74
2023/07/13 00:59:06;;;;;;;;;;;21.40;65.50;;;;;;5109480;28;20011;-75
2023/07/13 01:01:31;;;;;;;;;;;21.30;65.50;;;;;;5115241;27;19959;-74
2023/07/13 01:03:57;;;;;;;;;;;21.30;65.60;;;;;;5123963;27;19915;-75
2023/07/13 01:06:23;;;;;;;;;;;21.30;65.60;;;;;;5108924;28;19912;-74
2023/07/13 01:08:48;;;;;;;;;;;21.30;65.70;;;;;;5109019;28;20056;-74
2023/07/13 01:11:18;;;;;;;;;;;21.30;65.70;;;;;;5108784;28;20015;-75
2023/07/13 01:13:43;;;;;;;;;;;21.20;65.80;;;;;;5107242;28;19919;-75
2023/07/13 01:16:14;;;;;;;;;;;21.20;65.70;;;;;;5108779;28;19912;-74
2023/07/13 01:18:40;;;;;;;;;;;21.20;65.70;;;;;;5110100;27;19923;-74
2023/07/13 01:21:05;;;;;;;;;;;21.10;65.70;;;;;;5108609;28;20445;-75
2023/07/13 01:23:31;;;;;;;;;;;21.10;66.00;;;;;;5108665;28;19920;-75
2023/07/13 01:25:58;;;;;;;;;;;21.10;65.70;;;;;;5105460;28;19911;-74
2023/07/13 01:28:26;;;;;;;;;;;21.10;65.70;;;;;;5109418;28;19968;-75
2023/07/13 01:30:53;;;;;;;;;;;21.10;65.70;;;;;;5109103;28;19918;-75
2023/07/13 01:33:18;;;;;;;;;;;21.00;66.00;;;;;;5094576;28;19912;-74
2023/07/13 01:35:44;;;;;;;;;;;21.00;66.00;;;;;;5108613;28;19912;-75
2023/07/13 01:38:10;;;;;;;;;;;21.00;65.90;;;;;;5108837;28;19919;-74
2023/07/13 01:40:37;;;;;;;;;;;20.90;65.90;;;;;;5109727;28;19914;-75
2023/07/13 01:43:02;;;;;;;;;;;21.00;65.90;;;;;;5127879;28;19923;-74
2023/07/13 01:45:28;;;;;;;;;;;20.90;66.10;;;;;;5128956;27;19915;-75
2023/07/13 01:47:54;;;;;;;;;;;20.90;66.10;;;;;;5129309;27;19948;-75
2023/07/13 01:50:19;;;;;;;;;;;20.90;66.10;;;;;;5130515;27;19929;-74
2023/07/13 01:52:45;;;;;;;;;;;20.80;66.10;;;;;;5113517;27;19919;-74
2023/07/13 01:55:10;;;;;;;;;;;20.80;66.10;;;;;;5111422;28;20056;-74
2023/07/13 01:57:36;;;;;;;;;;;20.80;66.10;;;;;;5121311;27;19911;-74
2023/07/13 02:00:04;;;;;;;;;;;20.80;66.10;;;;;;5133500;27;19998;-74
2023/07/13 02:02:30;;;;;;;;;;;20.80;66.20;;;;;;5131839;27;19927;-75
2023/07/13 02:04:56;;;;;;;;;;;20.80;66.20;;;;;;5119190;27;19920;-75
2023/07/13 02:07:22;;;;;;;;;;;20.70;66.10;;;;;;5112248;28;19934;-75
2023/07/13 02:09:47;;;;;;;;;;;20.70;66.20;;;;;;5112474;28;19912;-74
2023/07/13 02:12:13;;;;;;;;;;;20.70;66.20;;;;;;5111476;28;19912;-75
2023/07/13 02:14:38;;;;;;;;;;;20.70;66.30;;;;;;5113300;27;20006;-75
2023/07/13 02:17:04;;;;;;;;;;;20.60;66.20;;;;;;5110864;28;20010;-74
2023/07/13 02:19:30;;;;;;;;;;;20.60;66.10;;;;;;5112749;27;19911;-74
2023/07/13 02:21:55;;;;;;;;;;;20.60;66.10;;;;;;5111973;28;19946;-74
2023/07/13 02:24:21;;;;;;;;;;;20.60;66.10;;;;;;5105125;28;19998;-75
2023/07/13 02:26:46;;;;;;;;;;;20.50;66.10;;;;;;5091444;28;20269;-74
2023/07/13 02:29:12;;;;;;;;;;;20.50;66.40;;;;;;5096516;27;19916;-74
2023/07/13 02:31:37;;;;;;;;;;;20.50;66.20;;;;;;5133313;27;20446;-75
2023/07/13 02:34:03;;;;;;;;;;;20.50;66.40;;;;;;5124750;27;19985;-75
2023/07/13 02:36:29;;;;;;;;;;;20.50;66.30;;;;;;5111712;27;20594;-75
2023/07/13 02:38:55;;;;;;;;;;;20.40;66.40;;;;;;5111935;28;20369;-74
2023/07/13 02:41:22;;;;;;;;;;;20.40;66.50;;;;;;5111755;28;19908;-74
2023/07/13 02:43:48;;;;;;;;;;;20.40;66.50;;;;;;5110584;28;19916;-74
2023/07/13 02:46:13;;;;;;;;;;;20.40;66.50;;;;;;5118319;27;19919;-75
2023/07/13 02:48:39;;;;;;;;;;;20.40;66.40;;;;;;5114239;27;19974;-74
2023/07/13 02:51:05;;;;;;;;;;;20.30;66.40;;;;;;5120886;27;20469;-74
2023/07/13 02:53:30;;;;;;;;;;;20.30;66.50;;;;;;5111697;28;19916;-75
2023/07/13 02:55:56;;;;;;;;;;;20.30;66.60;;;;;;5105784;27;20559;-75
2023/07/13 02:58:22;;;;;;;;;;;20.30;66.50;;;;;;5118828;27;19934;-74
2023/07/13 03:00:47;;;;;;;;;;;20.30;66.60;;;;;;5111186;28;19954;-74
2023/07/13 03:03:13;;;;;;;;;;;20.20;66.60;;;;;;5111375;27;19911;-75
2023/07/13 03:05:40;;;;;;;;;;;20.20;66.50;;;;;;5110906;28;19916;-74
2023/07/13 03:08:06;;;;;;;;;;;20.20;66.70;;;;;;5111450;28;19911;-74
2023/07/13 03:10:32;;;;;;;;;;;20.20;66.70;;;;;;5106717;28;19916;-74
2023/07/13 03:12:58;;;;;;;;;;;20.20;66.60;;;;;;5110437;27;19911;-75
2023/07/13 03:15:23;;;;;;;;;;;20.20;66.70;;;;;;5131305;27;19915;-74
2023/07/13 03:17:49;;;;;;;;;;;20.20;66.70;;;;;;5131935;27;20621;-74
2023/07/13 03:20:15;;;;;;;;;;;20.10;66.70;;;;;;5130306;27;19911;-74
2023/07/13 03:22:40;;;;;;;;;;;20.10;66.70;;;;;;5109012;27;19951;-74
2023/07/13 03:25:06;;;;;;;;;;;20.10;66.80;;;;;;5109804;27;19915;-74
2023/07/13 03:27:31;;;;;;;;;;;20.10;66.80;;;;;;5107560;27;19922;-74
2023/07/13 03:29:57;;;;;;;;;;;20.10;66.80;;;;;;5110852;28;19977;-74
2023/07/13 03:32:22;;;;;;;;;;;20.10;66.80;;;;;;5110807;28;20613;-74
2023/07/13 03:34:48;;;;;;;;;;;20.00;66.80;;;;;;5110969;28;20002;-74
2023/07/13 03:37:13;;;;;;;;;;;20.00;66.90;;;;;;5110528;28;19916;-74
2023/07/13 03:39:39;;;;;;;;;;;20.00;66.90;;;;;;5110359;28;19911;-74
2023/07/13 03:42:04;;;;;;;;;;;20.00;67.00;;;;;;5110392;28;19918;-74
2023/07/13 03:44:30;;;;;;;;;;;19.90;66.90;;;;;;5100012;28;19916;-74
2023/07/13 03:46:55;;;;;;;;;;;19.90;67.00;;;;;;5107987;28;19920;-74
2023/07/13 03:49:21;;;;;;;;;;;20.00;67.10;;;;;;5112597;27;20261;-74
2023/07/13 03:51:47;;;;;;;;;;;19.90;66.90;;;;;;5117877;27;19935;-75
2023/07/13 03:54:12;;;;;;;;;;;19.90;67.10;;;;;;5104487;27;20327;-74
2023/07/13 03:56:38;;;;;;;;;;;19.90;67.10;;;;;;5089676;28;19934;-74
2023/07/13 03:59:03;;;;;;;;;;;19.90;67.20;;;;;;5095664;27;20479;-74
2023/07/13 04:01:29;;;;;;;;;;;19.80;66.90;;;;;;5130820;27;19911;-75
2023/07/13 04:03:55;;;;;;;;;;;19.80;67.00;;;;;;5125246;27;19956;-74
2023/07/13 04:06:23;;;;;;;;;;;19.80;67.10;;;;;;5109969;28;19915;-74
2023/07/13 04:08:54;;;;;;;;;;;19.80;67.10;;;;;;5110301;28;19956;-74
2023/07/13 04:11:20;;;;;;;;;;;19.80;67.10;;;;;;5103019;28;19958;-74
2023/07/13 04:13:46;;;;;;;;;;;19.80;67.10;;;;;;5108440;28;20414;-74
2023/07/13 04:16:12;;;;;;;;;;;19.80;67.20;;;;;;5109197;27;19915;-75
2023/07/13 04:18:38;;;;;;;;;;;19.80;67.10;;;;;;5108440;28;20284;-74
2023/07/13 04:21:03;;;;;;;;;;;19.80;67.00;;;;;;5120532;27;19911;-74
2023/07/13 04:23:29;;;;;;;;;;;19.80;67.00;;;;;;5109691;28;19919;-74
2023/07/13 04:25:54;;;;;;;;;;;19.80;67.20;;;;;;5107963;28;19920;-74
2023/07/13 04:28:23;;;;;;;;;;;19.80;67.30;;;;;;5109514;28;20452;-74
2023/07/13 04:30:49;;;;;;;;;;;19.80;67.30;;;;;;5109761;28;19980;-74
2023/07/13 04:33:17;;;;;;;;;;;19.80;67.20;;;;;;5128889;27;20329;-74
2023/07/13 04:35:46;;;;;;;;;;;19.80;67.20;;;;;;5088793;28;19964;-75
2023/07/13 04:38:12;;;;;;;;;;;19.80;67.40;;;;;;5089155;28;20011;-74
2023/07/13 04:40:37;;;;;;;;;;;19.80;67.30;;;;;;5089204;28;20002;-74
2023/07/13 04:43:03;;;;;;;;;;;19.80;67.40;;;;;;5089049;28;19958;-74
2023/07/13 04:45:28;;;;;;;;;;;19.80;67.30;;;;;;5088726;28;19912;-74
2023/07/13 04:47:54;;;;;;;;;;;19.70;67.30;;;;;;5105091;27;20458;-74
2023/07/13 04:50:22;;;;;;;;;;;19.70;67.30;;;;;;5129926;27;19919;-74
2023/07/13 04:52:51;;;;;;;;;;;19.70;67.30;;;;;;5109122;27;19912;-74
2023/07/13 04:55:17;;;;;;;;;;;19.70;67.10;;;;;;5092530;28;19919;-74
2023/07/13 04:57:43;;;;;;;;;;;19.70;67.40;;;;;;5121428;27;19916;-74
2023/07/13 05:00:09;;;;;;;;;;;19.70;67.30;;;;;;5088735;28;20349;-74
2023/07/13 05:02:37;;;;;;;;;;;19.70;67.30;;;;;;5088818;28;19912;-75
2023/07/13 05:05:03;;;;;;;;;;;19.70;67.50;;;;;;5117111;27;20395;-74
2023/07/13 05:07:29;;;;;;;;;;;19.70;67.40;;;;;;5109007;27;19912;-74
2023/07/13 05:09:54;;;;;;;;;;;19.70;67.40;;;;;;5109244;28;20305;-74
2023/07/13 05:12:20;;;;;;;;;;;19.70;67.40;;;;;;5101857;28;19918;-74
2023/07/13 05:14:45;;;;;;;;;;;19.70;67.50;;;;;;5109001;28;19911;-74
2023/07/13 05:17:11;;;;;;;;;;;19.70;67.50;;;;;;5107476;28;20241;-74
2023/07/13 05:19:36;;;;;;;;;;;19.70;67.30;;;;;;5114347;27;19971;-75
2023/07/13 05:22:03;;;;;;;;;;;19.70;67.20;;;;;;5115209;27;19923;-74
2023/07/13 05:24:28;;;;;;;;;;;19.70;67.30;;;;;;5102345;28;19923;-75
2023/07/13 05:26:54;;;;;;;;;;;19.80;67.40;;;;;;5108849;28;19912;-75
2023/07/13 05:29:21;;;;;;;;;;;19.80;67.40;;;;;;5109141;28;20293;-74
2023/07/13 05:31:46;;;;;;;;;;;19.80;67.30;;;;;;5109160;28;19912;-75
2023/07/13 05:34:12;;;;;;;;;;;19.80;67.20;;;;;;5108834;28;20292;-74
2023/07/13 05:36:37;;;;;;;;;;;19.80;67.40;;;;;;5108804;28;19915;-74
2023/07/13 05:39:03;;;;;;;;;;;19.80;67.30;;;;;;5107801;28;19923;-74
2023/07/13 05:41:29;;;;;;;;;;;19.80;67.30;;;;;;5108969;28;19912;-74
2023/07/13 05:43:54;;;;;;;;;;;19.80;67.40;;;;;;5108956;28;19935;-74
2023/07/13 05:46:20;;;;;;;;;;;19.90;67.20;;;;;;5108430;28;20424;-74
2023/07/13 05:48:45;;;;;;;;;;;19.90;67.30;;;;;;5108649;28;19908;-75
2023/07/13 05:51:11;;;;;;;;;;;19.90;67.30;;;;;;5109054;28;19920;-75
2023/07/13 05:53:36;;;;;;;;;;;19.90;67.50;;;;;;5114020;28;20365;-75
2023/07/13 05:56:02;;;;;;;;;;;20.00;67.50;;;;;;5103049;28;19915;-75
2023/07/13 05:58:27;;;;;;;;;;;19.90;67.40;;;;;;5107170;28;19919;-75
2023/07/13 06:01:04;;;;;;;;;;;20.00;67.30;;;;;;5108669;28;19912;-75
2023/07/13 06:03:29;;;;;;;;;;;20.00;67.30;;;;;;5106778;28;19918;-74
2023/07/13 06:05:55;;;;;;;;;;;20.00;67.30;;;;;;5108124;28;19929;-74
2023/07/13 06:08:20;;;;;;;;;;;20.00;67.40;;;;;;5109440;28;19912;-75
2023/07/13 06:10:46;;;;;;;;;;;20.00;67.60;;;;;;5103550;28;19912;-74
2023/07/13 06:13:11;;;;;;;;;;;20.00;67.50;;;;;;5107621;28;19985;-74
2023/07/13 06:15:37;;;;;;;;;;;20.10;67.40;;;;;;5107832;28;19980;-75
2023/07/13 06:18:03;;;;;;;;;;;20.10;67.50;;;;;;5107547;28;19916;-74
2023/07/13 06:20:29;;;;;;;;;;;20.10;67.40;;;;;;5118377;27;20000;-74
2023/07/13 06:22:54;;;;;;;;;;;20.10;67.40;;;;;;5107135;28;19919;-74
2023/07/13 06:25:20;;;;;;;;;;;20.20;67.60;;;;;;5113171;28;19922;-74
2023/07/13 06:27:45;;;;;;;;;;;20.10;67.50;;;;;;5127925;27;20280;-75
2023/07/13 06:30:11;;;;;;;;;;;20.20;67.50;;;;;;5128325;27;19919;-74
2023/07/13 06:32:37;;;;;;;;;;;20.20;67.50;;;;;;5128035;27;19935;-74
2023/07/13 06:35:02;;;;;;;;;;;20.20;67.60;;;;;;5113109;27;20003;-75
2023/07/13 06:37:28;;;;;;;;;;;20.10;67.60;;;;;;5110167;28;20496;-74
2023/07/13 06:39:53;;;;;;;;;;;20.10;67.60;;;;;;5111373;28;19912;-74
2023/07/13 06:42:19;;;;;;;;;;;20.10;67.70;;;;;;5112528;27;19915;-74
2023/07/13 06:44:44;;;;;;;;;;;20.10;67.50;;;;;;5111174;27;19973;-75
2023/07/13 06:47:10;;;;;;;;;;;20.10;67.70;;;;;;5110580;27;20044;-75
2023/07/13 06:49:35;;;;;;;;;;;20.10;67.70;;;;;;5114815;27;19973;-74
2023/07/13 06:52:01;;;;;;;;;;;20.10;67.70;;;;;;5117301;27;20276;-74
2023/07/13 06:54:26;;;;;;;;;;;20.20;67.70;;;;;;5102774;28;19912;-75
2023/07/13 06:56:52;;;;;;;;;;;20.10;67.80;;;;;;5094493;27;19922;-75
2023/07/13 06:59:18;;;;;;;;;;;20.10;67.80;;;;;;5109768;28;19912;-75
2023/07/13 07:01:44;;;;;;;;;;;20.10;67.80;;;;;;5111987;27;19916;-75
2023/07/13 07:04:09;;;;;;;;;;;20.10;67.80;;;;;;5121906;27;20014;-74
2023/07/13 07:06:35;;;;;;;;;;;20.10;67.90;;;;;;5110029;28;19912;-75
2023/07/13 07:09:00;;;;;;;;;;;20.20;67.90;;;;;;5110695;28;19907;-74
2023/07/13 07:11:26;;;;;;;;;;;20.20;67.90;;;;;;5109916;28;20360;-75
2023/07/13 07:13:52;;;;;;;;;;;20.20;68.00;;;;;;5109738;27;20003;-75
2023/07/13 07:16:18;;;;;;;;;;;20.20;68.10;;;;;;5108589;28;20402;-75
2023/07/13 07:18:44;;;;;;;;;;;20.20;67.90;;;;;;5110417;28;19912;-74
2023/07/13 07:21:10;;;;;;;;;;;20.20;67.90;;;;;;5120993;27;20372;-75
2023/07/13 07:23:35;;;;;;;;;;;20.20;68.00;;;;;;5109051;28;19919;-75
2023/07/13 07:26:01;;;;;;;;;;;20.20;68.40;;;;;;5089407;28;19912;-75
2023/07/13 07:28:28;;;;;;;;;;;20.20;68.30;;;;;;5089730;28;19912;-74
2023/07/13 07:30:55;;;;;;;;;;;20.10;68.30;;;;;;5107913;27;20530;-74
2023/07/13 07:33:20;;;;;;;;;;;20.20;68.10;;;;;;5110055;28;19908;-74
2023/07/13 07:35:46;;;;;;;;;;;20.20;68.00;;;;;;5109455;28;20471;-74
2023/07/13 07:38:11;;;;;;;;;;;20.20;67.90;;;;;;5109787;28;20391;-74
2023/07/13 07:40:38;;;;;;;;;;;20.20;68.10;;;;;;5109642;28;19952;-74
2023/07/13 07:43:03;;;;;;;;;;;20.30;67.90;;;;;;5109757;28;20409;-75
2023/07/13 07:45:29;;;;;;;;;;;20.30;68.20;;;;;;5109628;28;19916;-75
2023/07/13 07:47:58;;;;;;;;;;;20.30;67.90;;;;;;5128633;27;19977;-74
2023/07/13 07:50:27;;;;;;;;;;;20.40;67.80;;;;;;5130073;27;20561;-74
2023/07/13 07:52:53;;;;;;;;;;;20.40;67.80;;;;;;5107970;28;19915;-74
2023/07/13 07:55:18;;;;;;;;;;;20.40;67.90;;;;;;5094062;28;19919;-74
2023/07/13 07:57:44;;;;;;;;;;;20.40;67.90;;;;;;5089240;28;19923;-75
2023/07/13 08:00:10;;;;;;;;;;;20.50;67.90;;;;;;5089174;28;19926;-75
2023/07/13 08:02:35;;;;;;;;;;;20.50;68.10;;;;;;5098683;27;19947;-75
2023/07/13 08:05:00;;;;;;;;;;;20.50;67.90;;;;;;5109259;28;20288;-75
2023/07/13 08:07:26;;;;;;;;;;;20.60;68.50;;;;;;5108955;28;19954;-76
2023/07/13 08:09:52;;;;;;;;;;;20.60;68.40;;;;;;5109513;28;19980;-75
2023/07/13 08:12:18;;;;;;;;;;;20.60;68.60;;;;;;5102290;28;19922;-75
2023/07/13 08:14:44;;;;;;;;;;;20.60;67.80;;;;;;5109171;28;19912;-74
2023/07/13 08:17:09;;;;;;;;;;;20.70;67.70;;;;;;5108736;28;19915;-75
2023/07/13 08:19:35;;;;;;;;;;;20.70;68.10;;;;;;5114084;27;19922;-75
2023/07/13 08:22:00;;;;;;;;;;;20.60;67.80;;;;;;5115822;27;19911;-75
2023/07/13 08:24:25;;;;;;;;;;;20.70;67.90;;;;;;5101039;28;19923;-75
2023/07/13 08:26:52;;;;;;;;;;;20.70;67.70;;;;;;5088448;28;19947;-74
2023/07/13 08:29:17;;;;;;;;;;;20.70;67.80;;;;;;5087198;28;19934;-75
2023/07/13 08:31:43;;;;;;;;;;;20.80;67.70;;;;;;5088913;28;19912;-75
2023/07/13 08:34:08;;;;;;;;;;;20.80;67.60;;;;;;5097114;27;19988;-74
2023/07/13 08:36:34;;;;;;;;;;;20.90;67.60;;;;;;5129174;27;20354;-75
2023/07/13 08:38:59;;;;;;;;;;;20.90;67.50;;;;;;5129299;27;20536;-75
2023/07/13 08:41:25;;;;;;;;;;;21.00;67.60;;;;;;5129461;27;19919;-75
2023/07/13 08:43:53;;;;;;;;;;;20.90;67.50;;;;;;5127697;27;20015;-75
2023/07/13 08:46:18;;;;;;;;;;;21.00;67.60;;;;;;5128200;27;19954;-75
2023/07/13 08:48:44;;;;;;;;;;;21.10;67.70;;;;;;5108275;28;20420;-75
2023/07/13 08:51:21;;;;;;;;;;;21.00;67.90;;;;;;5115950;27;19923;-75
2023/07/13 08:53:48;;;;;;;;;;;21.10;67.60;;;;;;5106030;28;20368;-75
2023/07/13 08:56:18;;;;;;;;;;;21.10;67.80;;;;;;5087305;28;19934;-75
2023/07/13 08:58:44;;;;;;;;;;;21.20;67.50;;;;;;5087136;28;19918;-75
2023/07/13 09:01:16;;;;;;;;;;;21.20;67.20;;;;;;5101890;28;19927;-75
2023/07/13 09:04:02;;;;;;;;;;;21.20;67.30;;;;;;5108723;27;19957;-76
2023/07/13 09:06:31;;;;;;;;;;;21.20;67.60;;;;;;5106354;28;19959;-76
2023/07/13 09:09:07;;;;;;;;;;;21.30;67.30;;;;;;5110063;28;20006;-76
2023/07/13 09:11:43;;;;;;;;;;;21.30;67.40;;;;;;5106456;28;19916;-75
2023/07/13 09:14:21;;;;;;;;;;;21.30;67.30;;;;;;5107493;28;19947;-75
2023/07/13 09:16:48;;;;;;;;;;;21.40;67.60;;;;;;5106425;28;19919;-75
2023/07/13 09:19:19;;;;;;;;;;;21.40;67.20;;;;;;5108004;28;20000;-75
2023/07/13 09:21:44;;;;;;;;;;;21.40;67.40;;;;;;5107667;28;20013;-75
2023/07/13 09:24:16;;;;;;;;;;;21.40;67.20;;;;;;5106637;28;20017;-75
2023/07/13 09:26:42;;;;;;;;;;;21.40;67.40;;;;;;5109236;28;20735;-75
2023/07/13 09:29:36;;;;;;;;;;;21.40;67.20;;;;;;5120646;28;20030;-75
2023/07/13 09:32:05;;;;;;;;;;;21.50;67.10;;;;;;5113798;27;19912;-74
2023/07/13 09:34:32;;;;;;;;;;;21.50;67.00;;;;;;5150227;27;20574;-75
2023/07/13 09:36:57;;;;;;;;;;;21.50;66.90;;;;;;5106201;28;20456;-75
2023/07/13 09:39:40;;;;;;;;;;;21.50;67.20;;;;;;5108619;28;19954;-75
2023/07/13 09:42:15;;;;;;;;;;;21.60;67.10;;;;;;5107889;28;20353;-75
2023/07/13 09:44:47;;;;;;;;;;;21.60;67.00;;;;;;5107800;28;20552;-75
2023/07/13 09:47:22;;;;;;;;;;;21.70;66.90;;;;;;5107591;28;19985;-75
2023/07/13 09:49:48;;;;;;;;;;;21.70;66.90;;;;;;5113429;28;19947;-74
2023/07/13 09:52:16;;;;;;;;;;;21.70;67.10;;;;;;5112591;27;19958;-75
2023/07/13 09:54:44;;;;;;;;;;;21.80;67.00;;;;;;5097500;28;19908;-76
2023/07/13 09:57:14;;;;;;;;;;;21.80;66.80;;;;;;5104945;28;19923;-76
2023/07/13 09:59:40;;;;;;;;;;;21.90;67.10;;;;;;5107702;28;19911;-75
2023/07/13 10:02:36;;;;;;;;;;;22.00;66.90;;;;;;5107333;28;19951;-74
2023/07/13 10:05:06;;;;;;;;;;;22.10;66.60;;;;;;5092488;28;19916;-74
2023/07/13 10:07:32;;;;;;;;;;;22.10;66.70;;;;;;5107329;28;19996;-75
2023/07/13 10:10:00;;;;;;;;;;;22.10;66.90;;;;;;5107569;28;20006;-75
2023/07/13 10:12:27;;;;;;;;;;;22.10;66.70;;;;;;5104818;27;19967;-75
2023/07/13 10:14:57;;;;;;;;;;;22.10;66.90;;;;;;5111290;28;19912;-74
2023/07/13 10:17:33;;;;;;;;;;;22.20;66.60;;;;;;5111525;28;20365;-75
2023/07/13 10:20:04;;;;;;;;;;;22.20;66.70;;;;;;5118898;27;20274;-75
2023/07/13 10:22:45;;;;;;;;;;;22.20;66.90;;;;;;5113314;27;19916;-76
2023/07/13 10:25:16;;;;;;;;;;;22.20;66.90;;;;;;5097731;28;19916;-75
2023/07/13 10:27:42;;;;;;;;;;;22.30;66.50;;;;;;5091921;28;20008;-75
2023/07/13 10:30:16;;;;;;;;;;;22.40;66.60;;;;;;5111668;27;20502;-75
2023/07/13 10:32:43;;;;;;;;;;;22.50;66.50;;;;;;5111897;28;20368;-75
2023/07/13 10:35:11;;;;;;;;;;;22.50;66.40;;;;;;5111873;28;19916;-75
2023/07/13 10:38:01;;;;;;;;;;;22.60;66.50;;;;;;5111584;28;19912;-75
2023/07/13 10:40:35;;;;;;;;;;;22.70;66.20;;;;;;5106394;28;19915;-75
2023/07/13 10:43:04;;;;;;;;;;;22.70;66.30;;;;;;5111716;28;20004;-75
2023/07/13 10:45:31;;;;;;;;;;;22.80;66.20;;;;;;5122981;27;19927;-76
2023/07/13 10:47:56;;;;;;;;;;;22.80;66.30;;;;;;5132281;27;19912;-75
2023/07/13 10:50:24;;;;;;;;;;;22.80;66.20;;;;;;5132174;27;19926;-75
2023/07/13 10:52:54;;;;;;;;;;;22.80;66.10;;;;;;5090658;28;19957;-75
2023/07/13 10:55:39;;;;;;;;;;;22.90;66.20;;;;;;5105633;28;19919;-75
2023/07/13 10:58:21;;;;;;;;;;;22.90;66.30;;;;;;5110625;28;19912;-76
2023/07/13 11:00:48;;;;;;;;;;;22.90;66.30;;;;;;5114843;27;20268;-75
2023/07/13 11:03:14;;;;;;;;;;;22.90;66.30;;;;;;5131157;27;20487;-75
2023/07/13 11:05:40;;;;;;;;;;;23.00;66.30;;;;;;5109252;27;19968;-75
2023/07/13 11:08:31;;;;;;;;;;;23.00;66.20;;;;;;5110334;28;19912;-75
2023/07/13 11:10:57;;;;;;;;;;;23.10;66.00;;;;;;5104284;28;19915;-76
2023/07/13 11:13:36;;;;;;;;;;;23.30;65.80;;;;;;5109363;28;19916;-75
2023/07/13 11:16:11;;;;;;;;;;;23.40;65.70;;;;;;5108471;28;19912;-75
2023/07/13 11:18:37;;;;;;;;;;;23.40;65.50;;;;;;5112605;27;20372;-75
2023/07/13 11:21:12;;;;;;;;;;;23.40;65.70;;;;;;5111698;27;19958;-76
2023/07/13 11:23:41;;;;;;;;;;;23.50;65.50;;;;;;5107095;28;19920;-75
2023/07/13 11:26:27;;;;;;;;;;;23.60;65.50;;;;;;5109023;28;19911;-75
2023/07/13 11:28:52;;;;;;;;;;;23.70;65.50;;;;;;5111980;27;20341;-74
2023/07/13 11:31:22;;;;;;;;;;;23.70;65.30;;;;;;5111138;28;19912;-75
2023/07/13 11:33:55;;;;;;;;;;;23.80;65.20;;;;;;5112172;27;19911;-75
2023/07/13 11:36:23;;;;;;;;;;;23.90;65.10;;;;;;5131403;27;20436;-75
2023/07/13 11:39:03;;;;;;;;;;;23.90;65.30;;;;;;5131636;27;20485;-76
2023/07/13 11:41:36;;;;;;;;;;;23.90;65.00;;;;;;5132202;27;19968;-76
2023/07/13 11:44:07;;;;;;;;;;;23.90;65.20;;;;;;5131627;27;19912;-75
2023/07/13 11:46:32;;;;;;;;;;;23.90;65.30;;;;;;5131340;27;19939;-75
2023/07/13 11:48:58;;;;;;;;;;;23.90;65.10;;;;;;5131674;27;19954;-76
2023/07/13 11:51:26;;;;;;;;;;;24.10;65.10;;;;;;5117224;27;20409;-75
2023/07/13 11:53:53;;;;;;;;;;;24.10;65.10;;;;;;5124331;27;20367;-75
2023/07/13 11:56:18;;;;;;;;;;;24.20;65.00;;;;;;5109485;28;19919;-75
2023/07/13 11:58:44;;;;;;;;;;;24.30;64.60;;;;;;5109947;28;20321;-75
2023/07/13 12:01:16;;;;;;;;;;;24.40;65.10;;;;;;5109786;28;19912;-75
2023/07/13 12:03:42;;;;;;;;;;;24.50;65.10;;;;;;5108310;28;19918;-75
2023/07/13 12:06:23;;;;;;;;;;;24.50;64.70;;;;;;5110924;27;20310;-75
2023/07/13 12:08:49;;;;;;;;;;;24.60;64.60;;;;;;5109563;28;19912;-75
2023/07/13 12:11:16;;;;;;;;;;;24.70;64.30;;;;;;5103105;28;19942;-75
2023/07/13 12:13:44;;;;;;;;;;;24.70;64.20;;;;;;5109095;28;19919;-75
2023/07/13 12:16:15;;;;;;;;;;;24.70;65.10;;;;;;5107189;28;19998;-76
2023/07/13 12:18:44;;;;;;;;;;;24.80;63.20;;;;;;5109510;28;19912;-75
2023/07/13 12:21:12;;;;;;;;;;;24.90;64.20;;;;;;5107962;27;19915;-75
2023/07/13 12:23:38;;;;;;;;;;;25.00;64.50;;;;;;5110206;27;19922;-76
2023/07/13 12:26:04;;;;;;;;;;;25.00;63.80;;;;;;5109174;28;20268;-75
2023/07/13 12:28:32;;;;;;;;;;;25.10;63.30;;;;;;5109208;28;19912;-74
2023/07/13 12:30:59;;;;;;;;;;;25.20;63.90;;;;;;5107669;28;20707;-75
2023/07/13 12:33:28;;;;;;;;;;;25.30;63.80;;;;;;5106731;28;19915;-75
2023/07/13 12:35:53;;;;;;;;;;;25.30;63.60;;;;;;5108984;28;19915;-76
2023/07/13 12:38:22;;;;;;;;;;;25.40;63.50;;;;;;5109159;27;19918;-75
2023/07/13 12:40:52;;;;;;;;;;;25.40;63.60;;;;;;5128772;27;19912;-75
2023/07/13 12:43:19;;;;;;;;;;;25.40;63.40;;;;;;5127753;27;19919;-75
2023/07/13 12:45:57;;;;;;;;;;;25.40;62.80;;;;;;5121845;27;19920;-75
2023/07/13 12:48:23;;;;;;;;;;;25.40;63.50;;;;;;5108192;27;19912;-75
2023/07/13 12:50:52;;;;;;;;;;;25.30;63.70;;;;;;5105513;28;19927;-75
2023/07/13 12:53:39;;;;;;;;;;;25.30;63.40;;;;;;5110087;27;19919;-76
2023/07/13 12:56:05;;;;;;;;;;;25.30;63.20;;;;;;5108382;28;19912;-77
2023/07/13 12:58:44;;;;;;;;;;;25.30;62.70;;;;;;5108671;28;19965;-76
2023/07/13 13:01:12;;;;;;;;;;;25.30;62.80;;;;;;5109257;28;20007;-75
2023/07/13 13:03:39;;;;;;;;;;;25.30;62.50;;;;;;5108690;28;20330;-76
2023/07/13 13:06:18;;;;;;;;;;;25.40;62.40;;;;;;5109424;28;19916;-76
2023/07/13 13:08:45;;;;;;;;;;;25.40;62.40;;;;;;5108790;28;19919;-75
2023/07/13 13:11:10;;;;;;;;;;;25.40;63.00;;;;;;5109117;27;19911;-76
2023/07/13 13:13:36;;;;;;;;;;;25.40;62.20;;;;;;5108554;28;19911;-76
2023/07/13 13:16:09;;;;;;;;;;;25.50;62.50;;;;;;5108389;28;20253;-75
2023/07/13 13:18:35;;;;;;;;;;;25.50;63.00;;;;;;5108670;28;20397;-76
2023/07/13 13:21:01;;;;;;;;;;;25.40;62.60;;;;;;5119340;27;20064;-75
2023/07/13 13:23:27;;;;;;;;;;;25.40;62.30;;;;;;5107081;28;19995;-75
2023/07/13 13:25:52;;;;;;;;;;;25.30;62.90;;;;;;5087840;28;20053;-74
2023/07/13 13:28:19;;;;;;;;;;;25.20;62.90;;;;;;5102833;27;19927;-75
2023/07/13 13:30:46;;;;;;;;;;;25.20;62.50;;;;;;5126616;28;19919;-75
2023/07/13 13:33:13;;;;;;;;;;;25.10;61.90;;;;;;5129711;27;19914;-75
2023/07/13 13:35:40;;;;;;;;;;;25.00;62.90;;;;;;5107780;28;19912;-75
2023/07/13 13:38:28;;;;;;;;;;;25.00;63.40;;;;;;5109044;28;19911;-76
2023/07/13 13:40:55;;;;;;;;;;;24.90;63.30;;;;;;5103074;28;19912;-75
2023/07/13 13:43:27;;;;;;;;;;;24.80;62.50;;;;;;5129549;27;19977;-76
2023/07/13 13:45:57;;;;;;;;;;;24.80;63.40;;;;;;5132109;27;19919;-76
2023/07/13 13:48:32;;;;;;;;;;;24.70;63.30;;;;;;5133633;27;20096;-76
2023/07/13 13:50:58;;;;;;;;;;;24.60;63.30;;;;;;5128741;27;19916;-76
2023/07/13 13:53:23;;;;;;;;;;;24.50;63.50;;;;;;5113017;28;20444;-76
2023/07/13 13:55:49;;;;;;;;;;;24.50;63.70;;;;;;5093074;28;19912;-76
2023/07/13 13:58:15;;;;;;;;;;;24.50;64.00;;;;;;5103637;27;19938;-76
2023/07/13 14:00:40;;;;;;;;;;;24.40;64.00;;;;;;5112582;28;19912;-76
2023/07/13 14:03:12;;;;;;;;;;;24.40;64.20;;;;;;5112560;28;20340;-76
2023/07/13 14:05:40;;;;;;;;;;;24.30;64.80;;;;;;5112516;28;19992;-76
2023/07/13 14:08:12;;;;;;;;;;;24.30;64.40;;;;;;5112578;28;19954;-75
2023/07/13 14:10:38;;;;;;;;;;;24.30;64.40;;;;;;5108033;27;19915;-76
2023/07/13 14:13:06;;;;;;;;;;;24.30;64.40;;;;;;5110257;28;20559;-75
2023/07/13 14:15:31;;;;;;;;;;;24.30;64.60;;;;;;5131970;27;19946;-75
2023/07/13 14:17:57;;;;;;;;;;;24.40;64.40;;;;;;5133304;27;20364;-76